^^
Meteo Knjazevac Station Historical Data
Daily Summary for June 11, 2021 Units:  Both    English   Metric
Daily Weekly Monthly Yearly Custom
  High: Low: Average:
Temperature: 32.2 °F /  0.1 °C 31.8 °F /  -0.1 °C 32 °F /  0 °C
Dew Point: 31.9 °F /  -0.1 °C 31.6 °F /  -0.2 °C 31.8 °F /  -0.1 °C
Humidity: 99% 99% 99%
Wind Speed: 3mph /  4.8km/h - 1mph /  1.6km/h
Wind Gust: 11mph /  17.7km/h - -
Wind- - South
Pressure: 30.02 in /  1016.5 hPa 29.98 in /  1015.1 hPa -
Precipitation: 0.05 in /  1.27 mm    
Historical Graphs
 
 
Tabular Data for June 11, 2021
Time Temperature Dew Point Pressure Wind Wind Speed Wind Gust Humidity Rainfall Rate (Hourly) solar Conditions
00:00 31.8 °F /  -0.1 °C 31.6 °F /  -0.2 °C 30.02in /  1016.5hPa Calm   2mph /  3.2km/h 99% 0.00in /  0mm 0 W/m2
00:10 31.8 °F /  -0.1 °C 31.6 °F /  -0.2 °C 30.02in /  1016.5hPa Calm   1mph /  1.6km/h 99% 0.00in /  0mm 0 W/m2
00:20 31.8 °F /  -0.1 °C 31.6 °F /  -0.2 °C 30.02in /  1016.5hPa North 1mph /  1.6km/h 4mph /  6.4km/h 99% 0.00in /  0mm 0 W/m2
00:30 31.8 °F /  -0.1 °C 31.6 °F /  -0.2 °C 30.00in /  1015.8hPa Calm   4mph /  6.4km/h 99% 0.00in /  0mm 0 W/m2
00:40 31.8 °F /  -0.1 °C 31.6 °F /  -0.2 °C 30.01in /  1016.1hPa Calm   5mph /  8km/h 99% 0.00in /  0mm 0 W/m2
00:50 31.8 °F /  -0.1 °C 31.6 °F /  -0.2 °C 29.98in /  1015.1hPa North 1mph /  1.6km/h 5mph /  8km/h 99% 0.00in /  0mm 0 W/m2
01:00 31.8 °F /  -0.1 °C 31.6 °F /  -0.2 °C 29.98in /  1015.1hPa NNW 2mph /  3.2km/h 6mph /  9.7km/h 99% 0.00in /  0mm 0 W/m2
01:10 32 °F /  0 °C 31.7 °F /  -0.2 °C 30.00in /  1015.8hPa NNW 2mph /  3.2km/h 6mph /  9.7km/h 99% 0.00in /  0mm 0 W/m2
01:20 32 °F /  0 °C 31.8 °F /  -0.1 °C 30.01in /  1016.1hPa NNW 2mph /  3.2km/h 9mph /  14.5km/h 99% 0.01in /  0.25mm 0 W/m2
01:30 32.2 °F /  0.1 °C 31.9 °F /  -0.1 °C 30.00in /  1015.8hPa NNE 1mph /  1.6km/h 9mph /  14.5km/h 99% 0.01in /  0.25mm 0 W/m2
01:40 32.2 °F /  0.1 °C 31.9 °F /  -0.1 °C 30.00in /  1015.8hPa Calm   5mph /  8km/h 99% 0.00in /  0mm 0 W/m2
01:50 32.2 °F /  0.1 °C 31.9 °F /  -0.1 °C 30.01in /  1016.1hPa North 1mph /  1.6km/h 11mph /  17.7km/h 99% 0.00in /  0mm 0 W/m2
02:00 32.2 °F /  0.1 °C 31.9 °F /  -0.1 °C 30.02in /  1016.5hPa North 1mph /  1.6km/h 4mph /  6.4km/h 99% 0.00in /  0mm 0 W/m2
02:10 32.2 °F /  0.1 °C 31.9 °F /  -0.1 °C 30.01in /  1016.1hPa NNE 1mph /  1.6km/h 6mph /  9.7km/h 99% 0.00in /  0mm 0 W/m2
02:20 32.2 °F /  0.1 °C 31.9 °F /  -0.1 °C 30.01in /  1016.1hPa NE 3mph /  4.8km/h 9mph /  14.5km/h 99% 0.01in /  0.25mm 0 W/m2
02:30 32 °F /  0 °C 31.8 °F /  -0.1 °C 30.01in /  1016.1hPa NE 1mph /  1.6km/h 8mph /  12.9km/h 99% 0.01in /  0.25mm 0 W/m2
02:40 32.2 °F /  0.1 °C 31.9 °F /  -0.1 °C 30.02in /  1016.5hPa North 1mph /  1.6km/h 7mph /  11.3km/h 99% 0.01in /  0.25mm 0 W/m2
02:50 32.2 °F /  0.1 °C 31.9 °F /  -0.1 °C 30.01in /  1016.1hPa North 1mph /  1.6km/h 7mph /  11.3km/h 99% 0.00in /  0mm 0 W/m2
03:00 32 °F /  0 °C 31.8 °F /  -0.1 °C 30.02in /  1016.5hPa NNE 1mph /  1.6km/h 5mph /  8km/h 99% 0.00in /  0mm 0 W/m2
03:10 32 °F /  0 °C 31.8 °F /  -0.1 °C 30.02in /  1016.5hPa NNW 1mph /  1.6km/h 5mph /  8km/h 99% 0.00in /  0mm 0 W/m2
03:20 32 °F /  0 °C 31.8 °F /  -0.1 °C 30.01in /  1016.1hPa NNE 2mph /  3.2km/h 6mph /  9.7km/h 99% 0.00in /  0mm 0 W/m2
03:30 32 °F /  0 °C 31.8 °F /  -0.1 °C 30.00in /  1015.8hPa Calm   7mph /  11.3km/h 99% 0.00in /  0mm 0 W/m2
03:40 31.8 °F /  -0.1 °C 31.6 °F /  -0.2 °C 30.00in /  1015.8hPa Calm   6mph /  9.7km/h 99% 0.00in /  0mm 0 W/m2
Knjazevac, Serbia
Compliments of Weather Underground - 2 mb